Kenton Hills, Kentucky
Current Conditions -  °F | °C
As of 3:34 PM on Monday 22 Dec 2014 (Local Time) from KI69 Reporting Station
Scattered Clouds Scattered Clouds  
Wind Chill: 50°   Ceiling: Unl
Heat Index: 50°   Visibility: 10mi
Dew Point: 37°   Wind: 10mph
Humidity: 62%   Direction: 110°ESE
Pressure: 29.82"   Gusts: 17mph
Location:  39.0659°N, 84.5309°W
Report Text: KI69 222034Z AUTO 11009G15KT 10SM SCT120 10/03 A2982 RMK AO1
Loading
Personal Weather Stations






























Interactive Weather Map New forecast layout! Learn more

10-Day Weather Forecast

Advertisements
Track Severe Weather on mobile